Time;durP1;ratioP1;P1;durP2;ratioP2;P2;SDS_P1;SDS_P2;PMS_P1;PMS_P2;Temp;Humidity;BMP_temperature;BMP_pressure;BME280_temperature;BME280_humidity;BME280_pressure;Samples;Min_cycle;Max_cycle;Signal;HPM_P1;HPM_P2
2021/07/28 00:00:14;;;;;;;;;;;;;;;13.51;96.92;99044.41;5033578;28;19924;-61
2021/07/28 00:02:40;;;;;;;;;;;;;;;13.52;97.08;99037.91;5033689;28;19927;-61
2021/07/28 00:05:06;;;;;;;;;;;;;;;13.54;96.85;99041.16;5033425;28;19941;-61
2021/07/28 00:07:31;;;;;;;;;;;;;;;13.50;96.78;99039.25;5033448;28;20023;-60
2021/07/28 00:09:56;;;;;;;;;;;;;;;13.48;97.01;99034.16;5033848;28;19917;-61
2021/07/28 00:12:21;;;;;;;;;;;;;;;13.45;96.79;99037.38;5031804;28;20012;-60
2021/07/28 00:14:47;;;;;;;;;;;;;;;13.43;97.13;99039.53;5033524;28;19921;-61
2021/07/28 00:17:13;;;;;;;;;;;;;;;13.38;97.10;99037.63;5033171;28;20016;-61
2021/07/28 00:25:10;;;;;;;;;;;;;;;13.33;97.15;99050.28;5031791;28;19920;-61
2021/07/28 00:27:36;;;;;;;;;;;;;;;13.33;97.07;99042.19;5013733;28;19921;-61
2021/07/28 00:30:01;;;;;;;;;;;;;;;13.31;97.47;99044.34;5013348;28;19940;-61
2021/07/28 00:32:26;;;;;;;;;;;;;;;13.28;97.27;99037.59;5033384;28;19935;-61
2021/07/28 00:34:51;;;;;;;;;;;;;;;13.26;97.25;99045.09;5033481;28;19917;-63
2021/07/28 00:37:17;;;;;;;;;;;;;;;13.30;97.00;99035.44;5013017;28;20352;-61
2021/07/28 00:39:42;;;;;;;;;;;;;;;13.34;97.05;99044.59;5013589;28;19918;-61
2021/07/28 00:42:07;;;;;;;;;;;;;;;13.34;97.16;99046.50;5030529;28;19970;-61
2021/07/28 00:44:32;;;;;;;;;;;;;;;13.24;97.33;99052.63;5032775;28;19917;-61
2021/07/28 00:46:58;;;;;;;;;;;;;;;13.19;97.85;99046.44;5032802;28;20275;-62
2021/07/28 00:49:23;;;;;;;;;;;;;;;13.18;97.74;99048.31;5033303;28;19917;-61
2021/07/28 00:51:48;;;;;;;;;;;;;;;13.21;97.64;99042.41;5031458;28;20402;-61
2021/07/28 00:54:13;;;;;;;;;;;;;;;13.22;97.78;99043.19;5031848;28;19952;-61
2021/07/28 00:56:39;;;;;;;;;;;;;;;13.25;97.40;99037.28;5032328;28;19925;-61
2021/07/28 00:59:04;;;;;;;;;;;;;;;13.35;97.30;99037.34;5033047;28;19925;-61
2021/07/28 01:01:29;;;;;;;;;;;;;;;13.36;96.92;99034.41;5031374;28;20336;-61
2021/07/28 01:03:54;;;;;;;;;;;;;;;13.46;96.79;99033.63;5032839;28;19925;-61
2021/07/28 01:06:20;;;;;;;;;;;;;;;13.46;96.38;99033.63;5032739;28;19925;-61
2021/07/28 01:08:45;;;;;;;;;;;;;;;13.50;95.58;99040.06;5031850;28;19925;-61
2021/07/28 01:11:10;;;;;;;;;;;;;;;13.50;95.72;99037.38;5032301;28;19925;-61
2021/07/28 01:13:37;;;;;;;;;;;;;;;13.46;95.88;99022.84;5032885;28;19924;-61
2021/07/28 01:16:11;;;;;;;;;;;;;;;13.44;96.03;99024.19;5032752;28;20382;-60
2021/07/28 01:18:37;;;;;;;;;;;;;;;13.43;96.51;99020.69;5032934;28;19960;-61
2021/07/28 01:21:02;;;;;;;;;;;;;;;13.42;96.35;99016.38;5032483;28;20316;-61
2021/07/28 01:23:28;;;;;;;;;;;;;;;13.44;96.50;99013.41;5032715;28;19921;-61
2021/07/28 01:25:54;;;;;;;;;;;;;;;13.47;95.62;99004.81;5032297;28;20287;-61
2021/07/28 01:28:19;;;;;;;;;;;;;;;13.40;95.73;98994.28;5032450;28;19917;-61
2021/07/28 01:30:45;;;;;;;;;;;;;;;13.35;95.85;98999.66;5030862;28;19921;-61
2021/07/28 01:33:10;;;;;;;;;;;;;;;13.34;96.10;99003.44;5031409;28;19920;-61
2021/07/28 01:35:36;;;;;;;;;;;;;;;13.25;96.05;99010.38;5032375;28;19928;-61
2021/07/28 01:38:01;;;;;;;;;;;;;;;13.23;96.28;99012.50;5032590;28;19960;-61
2021/07/28 01:40:27;;;;;;;;;;;;;;;13.20;96.49;99010.34;5032277;28;19928;-61
2021/07/28 01:42:52;;;;;;;;;;;;;;;13.23;96.31;99007.97;5032578;28;20367;-60
2021/07/28 01:45:17;;;;;;;;;;;;;;;13.32;95.97;99005.56;5032406;28;19924;-61
2021/07/28 01:47:43;;;;;;;;;;;;;;;13.35;95.54;99000.50;5032760;28;19917;-61
2021/07/28 01:50:09;;;;;;;;;;;;;;;13.42;94.50;99005.59;5035891;28;19917;-61
2021/07/28 01:52:37;;;;;;;;;;;;;;;13.43;93.92;99001.00;5036144;28;19996;-60
2021/07/28 01:55:03;;;;;;;;;;;;;;;13.39;94.00;98995.38;5035914;28;20294;-61
2021/07/28 01:57:28;;;;;;;;;;;;;;;13.41;93.39;98984.34;5034863;28;20008;-60
2021/07/28 01:59:53;;;;;;;;;;;;;;;13.44;93.11;98995.38;5036121;28;19917;-61
2021/07/28 02:02:19;;;;;;;;;;;;;;;13.48;93.51;98988.41;5034028;28;19925;-61
2021/07/28 02:04:44;;;;;;;;;;;;;;;13.46;93.48;98987.03;5034738;28;19917;-61
2021/07/28 02:07:09;;;;;;;;;;;;;;;13.46;93.58;98990.53;5035498;28;19922;-61
2021/07/28 02:09:34;;;;;;;;;;;;;;;13.43;94.23;98991.06;5036026;28;19917;-61
2021/07/28 02:12:00;;;;;;;;;;;;;;;13.49;95.11;98995.38;5025862;28;19991;-61
2021/07/28 02:14:25;;;;;;;;;;;;;;;13.47;94.88;98997.53;5016185;28;19918;-61
2021/07/28 02:16:51;;;;;;;;;;;;;;;13.55;94.85;98994.31;5030607;28;19921;-61
2021/07/28 02:19:16;;;;;;;;;;;;;;;13.59;94.41;98987.31;5035881;28;20003;-61
2021/07/28 02:21:41;;;;;;;;;;;;;;;13.55;93.73;98980.88;5021460;28;20280;-61
2021/07/28 02:24:06;;;;;;;;;;;;;;;13.61;93.01;98986.25;5015788;28;19924;-61
2021/07/28 02:26:32;;;;;;;;;;;;;;;13.69;93.46;98983.03;5027763;28;19921;-61
2021/07/28 02:28:57;;;;;;;;;;;;;;;13.68;93.54;98987.59;5035556;28;20008;-60
2021/07/28 02:31:22;;;;;;;;;;;;;;;13.65;93.75;98984.63;5023921;28;20032;-61
2021/07/28 02:33:47;;;;;;;;;;;;;;;13.58;94.69;98983.00;5015832;28;19922;-61
2021/07/28 02:36:12;;;;;;;;;;;;;;;13.65;94.92;98987.31;5025261;28;19944;-61
2021/07/28 02:38:38;;;;;;;;;;;;;;;13.68;94.46;98979.53;5035272;28;19925;-61
2021/07/28 02:41:03;;;;;;;;;;;;;;;13.74;94.04;98988.41;5026448;28;19968;-61
2021/07/28 02:43:28;;;;;;;;;;;;;;;13.78;93.95;98978.72;5015440;28;20382;-61
2021/07/28 02:45:54;;;;;;;;;;;;;;;13.73;93.79;98989.50;5021165;28;19922;-61
2021/07/28 02:48:19;;;;;;;;;;;;;;;13.74;93.67;98988.41;5035043;28;19917;-61
2021/07/28 02:50:44;;;;;;;;;;;;;;;13.76;93.79;98984.38;5034230;28;19932;-60
2021/07/28 02:53:09;;;;;;;;;;;;;;;13.76;93.99;98978.97;5034649;28;19917;-61
2021/07/28 02:55:35;;;;;;;;;;;;;;;13.78;93.95;98992.19;5029958;28;19956;-61
2021/07/28 02:58:00;;;;;;;;;;;;;;;13.80;93.77;98984.63;5015037;28;20072;-60
2021/07/28 03:00:25;;;;;;;;;;;;;;;13.79;94.04;98978.44;5017213;28;19928;-61
2021/07/28 03:02:50;;;;;;;;;;;;;;;13.84;93.83;98983.03;5033598;28;19921;-61
2021/07/28 03:05:16;;;;;;;;;;;;;;;13.84;94.07;98984.91;5032487;28;20380;-61
2021/07/28 03:07:41;;;;;;;;;;;;;;;13.87;93.84;98984.38;5014982;28;19925;-62
2021/07/28 03:10:07;;;;;;;;;;;;;;;13.88;93.80;98986.81;5015498;28;20288;-61
2021/07/28 03:12:32;;;;;;;;;;;;;;;13.89;94.04;98990.28;5034606;28;19913;-61
2021/07/28 03:14:57;;;;;;;;;;;;;;;13.93;93.75;98986.78;5034997;28;19944;-61
2021/07/28 03:17:22;;;;;;;;;;;;;;;13.96;94.01;98988.94;5034234;28;19921;-60
2021/07/28 03:19:48;;;;;;;;;;;;;;;13.95;93.78;98979.25;5033923;28;20288;-61
2021/07/28 03:22:13;;;;;;;;;;;;;;;13.97;93.99;98974.38;5032199;28;19996;-60
2021/07/28 03:24:38;;;;;;;;;;;;;;;14.01;94.05;98978.16;5033779;28;20051;-61
2021/07/28 03:27:03;;;;;;;;;;;;;;;14.06;94.08;98974.66;5033178;28;20390;-61
2021/07/28 03:29:29;;;;;;;;;;;;;;;14.01;94.32;98964.69;5033854;28;19956;-60
2021/07/28 03:31:54;;;;;;;;;;;;;;;14.03;93.95;98972.50;5033257;28;19975;-60
2021/07/28 03:34:19;;;;;;;;;;;;;;;14.05;93.90;98970.34;5033798;28;20008;-60
2021/07/28 03:36:44;;;;;;;;;;;;;;;14.08;93.64;98961.72;5033861;28;19925;-60
2021/07/28 03:39:10;;;;;;;;;;;;;;;14.07;93.73;98962.00;5034160;28;20004;-61
2021/07/28 03:41:35;;;;;;;;;;;;;;;13.99;93.84;98956.06;5033681;28;19925;-61
2021/07/28 03:44:00;;;;;;;;;;;;;;;13.99;93.97;98949.88;5034128;28;20421;-60
2021/07/28 03:46:25;;;;;;;;;;;;;;;14.00;93.82;98951.47;5033530;28;19963;-61
2021/07/28 03:48:51;;;;;;;;;;;;;;;13.95;93.88;98955.00;5034026;28;19929;-60
2021/07/28 03:51:16;;;;;;;;;;;;;;;13.94;94.02;98947.19;5033706;28;20326;-60
2021/07/28 03:53:41;;;;;;;;;;;;;;;13.91;93.97;98953.94;5033949;28;20417;-61
2021/07/28 03:56:06;;;;;;;;;;;;;;;13.90;94.11;98960.38;5033437;28;20286;-61
2021/07/28 03:58:32;;;;;;;;;;;;;;;13.91;94.23;98964.69;5034012;28;19913;-60
2021/07/28 04:00:57;;;;;;;;;;;;;;;13.93;94.27;98964.44;5033551;28;19932;-61
2021/07/28 04:03:22;;;;;;;;;;;;;;;14.00;94.26;98965.78;5033667;28;19964;-61
2021/07/28 04:05:52;;;;;;;;;;;;;;;14.13;93.75;98969.81;5033270;28;19925;-61
2021/07/28 04:08:17;;;;;;;;;;;;;;;14.21;93.60;98963.06;5032430;28;19924;-61
2021/07/28 04:10:43;;;;;;;;;;;;;;;14.23;93.48;98960.91;5032781;28;19921;-61
2021/07/28 04:13:08;;;;;;;;;;;;;;;14.25;93.61;98961.41;5033704;28;19923;-61
2021/07/28 04:15:34;;;;;;;;;;;;;;;14.32;93.35;98964.63;5028672;28;20294;-61
2021/07/28 04:17:59;;;;;;;;;;;;;;;14.35;93.23;98963.28;5013806;28;19918;-60
2021/07/28 04:20:24;;;;;;;;;;;;;;;14.36;93.54;98960.31;5016663;28;19928;-61
2021/07/28 04:22:49;;;;;;;;;;;;;;;14.43;93.09;98971.63;5033579;28;19917;-61
2021/07/28 04:25:15;;;;;;;;;;;;;;;14.44;93.04;98967.84;5031062;28;20356;-60
2021/07/28 04:27:40;;;;;;;;;;;;;;;14.46;93.49;98971.06;5012496;28;19924;-60
2021/07/28 04:30:05;;;;;;;;;;;;;;;14.49;93.54;98971.59;5012773;28;19917;-60
2021/07/28 04:32:31;;;;;;;;;;;;;;;14.49;93.67;98974.31;5033427;28;19967;-61
2021/07/28 04:34:56;;;;;;;;;;;;;;;14.49;93.45;98975.09;5033454;28;19917;-60
2021/07/28 04:37:21;;;;;;;;;;;;;;;14.50;93.57;98982.09;5012481;28;20017;-61
2021/07/28 04:39:47;;;;;;;;;;;;;;;14.51;93.59;98969.44;5013444;28;20065;-61
2021/07/28 04:42:12;;;;;;;;;;;;;;;14.46;93.16;98981.84;5031107;28;20027;-61
2021/07/28 04:44:37;;;;;;;;;;;;;;;14.48;93.25;98978.06;5033090;28;20224;-61
2021/07/28 04:47:03;;;;;;;;;;;;;;;14.52;93.08;98984.53;5015265;28;19922;-61
2021/07/28 04:49:28;;;;;;;;;;;;;;;14.56;92.89;98978.34;5013520;28;20011;-61
2021/07/28 04:51:53;;;;;;;;;;;;;;;14.51;92.76;98988.31;5028503;28;20295;-61
2021/07/28 04:54:18;;;;;;;;;;;;;;;14.48;93.38;98992.38;5033051;28;19917;-62
2021/07/28 04:56:44;;;;;;;;;;;;;;;14.48;93.38;98989.69;5018562;28;19972;-61
2021/07/28 04:59:09;;;;;;;;;;;;;;;14.50;93.44;98992.09;5013277;28;19917;-60
2021/07/28 05:01:34;;;;;;;;;;;;;;;14.52;93.71;98979.13;5025753;28;19963;-60
2021/07/28 05:03:59;;;;;;;;;;;;;;;14.56;93.51;98985.66;5032768;28;19929;-62
2021/07/28 05:06:25;;;;;;;;;;;;;;;14.56;93.48;98985.66;5021123;28;19928;-61
2021/07/28 05:08:50;;;;;;;;;;;;;;;14.72;93.00;98981.78;5013251;28;20265;-61
2021/07/28 05:11:15;;;;;;;;;;;;;;;14.76;92.51;98990.97;5022760;28;20016;-61
2021/07/28 05:13:40;;;;;;;;;;;;;;;14.86;92.64;98985.53;5032958;28;19924;-61
2021/07/28 05:16:06;;;;;;;;;;;;;;;14.87;92.21;98980.94;5032545;28;19921;-61
2021/07/28 05:18:31;;;;;;;;;;;;;;;14.91;92.22;98982.00;5032976;28;19968;-61
2021/07/28 05:20:56;;;;;;;;;;;;;;;15.04;92.23;98980.59;5032626;28;19921;-61
2021/07/28 05:23:21;;;;;;;;;;;;;;;14.97;91.46;98974.69;5032895;28;19923;-61
2021/07/28 05:25:47;;;;;;;;;;;;;;;15.08;91.04;98977.06;5036379;28;20378;-61
2021/07/28 05:28:12;;;;;;;;;;;;;;;15.11;90.95;98975.69;5036727;28;19917;-61
2021/07/28 05:30:37;;;;;;;;;;;;;;;14.96;91.33;98979.28;5036375;28;20015;-61
2021/07/28 05:33:03;;;;;;;;;;;;;;;14.95;91.26;98980.38;5036782;28;20382;-61
2021/07/28 05:35:28;;;;;;;;;;;;;;;15.04;91.22;98980.59;5036317;28;19917;-60
2021/07/28 05:37:59;;;;;;;;;;;;;;;15.10;90.98;98979.47;5036690;28;20020;-61
2021/07/28 05:40:24;;;;;;;;;;;;;;;15.14;90.98;98975.13;5036056;28;19917;-60
2021/07/28 05:42:50;;;;;;;;;;;;;;;15.16;91.29;98967.56;5036676;28;19921;-60
2021/07/28 05:45:15;;;;;;;;;;;;;;;15.24;90.63;98963.47;5035775;28;19983;-60
2021/07/28 05:47:41;;;;;;;;;;;;;;;15.29;90.16;98966.16;5035387;28;19956;-61
2021/07/28 05:50:07;;;;;;;;;;;;;;;15.70;88.83;98980.22;5036439;28;19924;-62
2021/07/28 05:52:32;;;;;;;;;;;;;;;15.80;88.25;98986.59;5036587;28;20287;-61
2021/07/28 05:54:57;;;;;;;;;;;;;;;15.68;88.33;98976.94;5035278;28;19967;-62
2021/07/28 05:57:23;;;;;;;;;;;;;;;15.64;88.31;98972.38;5036226;28;19921;-62
2021/07/28 05:59:48;;;;;;;;;;;;;;;15.81;87.80;98975.53;5036132;28;19987;-61
2021/07/28 06:02:13;;;;;;;;;;;;;;;15.74;88.21;98969.63;5035895;28;19925;-61
2021/07/28 06:04:38;;;;;;;;;;;;;;;15.67;88.93;98969.91;5036084;28;20028;-61
2021/07/28 06:07:05;;;;;;;;;;;;;;;16.26;86.47;98969.97;5035513;28;19929;-61
2021/07/28 06:09:31;;;;;;;;;;;;;;;18.98;75.90;98969.38;5035865;28;19917;-61
2021/07/28 06:11:56;;;;;;;;;;;;;;;18.60;75.98;98977.72;5035654;28;20445;-61
2021/07/28 06:14:21;;;;;;;;;;;;;;;16.73;84.04;98981.91;5034665;28;20322;-61
2021/07/28 06:16:46;;;;;;;;;;;;;;;16.33;86.71;98973.97;5021084;28;20016;-61
2021/07/28 06:19:12;;;;;;;;;;;;;;;16.38;86.68;98975.81;5016166;28;19972;-61
2021/07/28 06:21:37;;;;;;;;;;;;;;;16.22;87.99;98968.94;5028772;28;19921;-61
2021/07/28 06:24:02;;;;;;;;;;;;;;;16.44;86.46;98974.66;5035689;28;19963;-61
2021/07/28 06:26:28;;;;;;;;;;;;;;;16.73;85.34;98971.91;5023347;28;20319;-62
2021/07/28 06:28:53;;;;;;;;;;;;;;;17.49;82.35;98971.19;5016096;28;20013;-61
2021/07/28 06:31:18;;;;;;;;;;;;;;;17.14;84.38;98976.00;5026105;28;19917;-62
2021/07/28 06:33:43;;;;;;;;;;;;;;;16.86;84.90;98981.25;5035506;28;19921;-61
2021/07/28 06:36:09;;;;;;;;;;;;;;;16.52;85.74;98978.63;5025669;28;20406;-61
2021/07/28 06:38:34;;;;;;;;;;;;;;;16.43;85.82;98966.84;5015674;28;19913;-61
2021/07/28 06:40:59;;;;;;;;;;;;;;;16.44;86.44;98966.53;5023413;28;19929;-61
2021/07/28 06:43:24;;;;;;;;;;;;;;;16.51;85.97;98969.72;5035198;28;19940;-61
2021/07/28 06:45:50;;;;;;;;;;;;;;;16.51;86.32;98972.41;5034508;28;19952;-61
2021/07/28 06:48:15;;;;;;;;;;;;;;;16.30;86.83;98979.13;5035280;28;20252;-61
2021/07/28 06:50:40;;;;;;;;;;;;;;;16.48;87.50;98981.13;5029356;28;19921;-61
2021/07/28 06:53:06;;;;;;;;;;;;;;;16.68;86.97;98979.28;5015370;28;19917;-61
2021/07/28 06:55:31;;;;;;;;;;;;;;;16.77;86.38;98980.22;5019152;28;19971;-61
2021/07/28 06:57:56;;;;;;;;;;;;;;;16.63;86.43;98987.44;5035292;28;20264;-61
2021/07/28 07:00:21;;;;;;;;;;;;;;;16.69;86.12;98991.69;5031655;28;20434;-61
2021/07/28 07:02:47;;;;;;;;;;;;;;;16.92;85.15;98985.47;5014984;28;19921;-61
2021/07/28 07:05:12;;;;;;;;;;;;;;;16.80;83.75;98983.22;5016418;28;19925;-61
2021/07/28 07:07:37;;;;;;;;;;;;;;;16.86;84.67;98986.66;5034933;28;19928;-61
2021/07/28 07:10:08;;;;;;;;;;;;;;;17.37;82.32;98986.00;5034209;28;19925;-63
2021/07/28 07:12:33;;;;;;;;;;;;;;;16.93;83.69;98976.28;5015287;28;19972;-62
2021/07/28 07:14:58;;;;;;;;;;;;;;;17.83;80.87;98987.22;5015569;28;19918;-63
2021/07/28 07:17:24;;;;;;;;;;;;;;;19.31;74.07;98976.22;5014775;28;19921;-62
2021/07/28 07:19:49;;;;;;;;;;;;;;;19.93;71.07;98969.38;5014134;28;19921;-62
2021/07/28 07:22:14;;;;;;;;;;;;;;;19.62;72.98;98970.09;5014502;28;19929;-62
2021/07/28 07:24:40;;;;;;;;;;;;;;;22.49;62.44;98978.06;5015159;28;19977;-62
2021/07/28 07:27:05;;;;;;;;;;;;;;;22.73;61.75;98972.03;5031398;28;20375;-62
2021/07/28 07:29:30;;;;;;;;;;;;;;;23.35;58.74;98990.50;5034496;28;20389;-59
2021/07/28 07:31:56;;;;;;;;;;;;;;;22.72;60.64;98987.63;5032855;28;19921;-61
2021/07/28 07:34:21;;;;;;;;;;;;;;;23.64;57.64;98986.09;5034605;28;20015;-60
2021/07/28 07:36:46;;;;;;;;;;;;;;;22.80;61.05;98977.78;5032977;28;19975;-61
2021/07/28 07:39:11;;;;;;;;;;;;;;;22.46;62.63;98976.81;5034487;28;19924;-60
2021/07/28 07:41:37;;;;;;;;;;;;;;;24.32;55.31;98975.59;5033924;28;19927;-60
2021/07/28 07:44:02;;;;;;;;;;;;;;;22.90;59.58;98979.34;5034466;28;19957;-60
2021/07/28 07:46:27;;;;;;;;;;;;;;;23.93;57.22;98987.91;5032243;28;20507;-60
2021/07/28 07:48:53;;;;;;;;;;;;;;;22.79;60.69;98987.13;5034303;28;19917;-60
2021/07/28 07:51:19;;;;;;;;;;;;;;;21.66;63.52;98990.91;5033774;28;19925;-60
2021/07/28 07:53:44;;;;;;;;;;;;;;;21.10;67.44;98995.34;5033086;28;19917;-60
2021/07/28 07:56:09;;;;;;;;;;;;;;;19.60;70.74;98985.91;5033719;28;19944;-61
2021/07/28 07:58:34;;;;;;;;;;;;;;;19.83;71.40;98994.91;5006084;28;19924;-61
2021/07/28 08:01:09;;;;;;;;;;;;;;;18.96;73.29;99002.25;5002175;28;20295;-60
2021/07/28 08:03:35;;;;;;;;;;;;;;;18.66;75.47;98992.78;5013959;28;20291;-60
2021/07/28 08:06:00;;;;;;;;;;;;;;;18.34;76.49;98991.75;5013706;28;19925;-60
2021/07/28 08:08:25;;;;;;;;;;;;;;;18.59;76.95;98995.09;5013947;28;19917;-61
2021/07/28 08:10:50;;;;;;;;;;;;;;;18.48;76.25;98986.34;5013646;28;19921;-61
2021/07/28 08:13:16;;;;;;;;;;;;;;;18.60;76.84;98989.38;5014097;28;20020;-60
2021/07/28 08:15:41;;;;;;;;;;;;;;;19.35;74.41;98987.31;5019323;28;19925;-60
2021/07/28 08:18:06;;;;;;;;;;;;;;;21.33;67.33;98985.91;5033599;28;19917;-60
2021/07/28 08:20:32;;;;;;;;;;;;;;;20.16;71.24;98990.00;5028797;28;19924;-61
2021/07/28 08:22:57;;;;;;;;;;;;;;;18.60;76.71;98986.66;5013789;28;19917;-60
2021/07/28 08:25:22;;;;;;;;;;;;;;;18.32;77.56;98978.50;5016701;28;19917;-61
2021/07/28 08:27:48;;;;;;;;;;;;;;;18.08;78.21;98994.13;5033294;28;19951;-61
2021/07/28 08:30:13;;;;;;;;;;;;;;;18.05;79.05;98992.81;5031516;28;19921;-61
2021/07/28 08:32:39;;;;;;;;;;;;;;;18.26;78.46;99001.38;5013689;28;19918;-61
2021/07/28 08:35:04;;;;;;;;;;;;;;;18.35;78.23;98998.78;5014129;28;20012;-61
2021/07/28 08:37:30;;;;;;;;;;;;;;;18.06;78.76;98997.13;5033548;28;19932;-61
2021/07/28 08:39:55;;;;;;;;;;;;;;;18.14;78.77;99000.25;5032304;28;19917;-61
2021/07/28 08:42:20;;;;;;;;;;;;;;;18.55;77.36;99005.75;5014031;28;20298;-61
2021/07/28 08:44:47;;;;;;;;;;;;;;;18.32;77.91;99002.91;5012664;28;19932;-61
2021/07/28 08:47:12;;;;;;;;;;;;;;;18.40;77.72;99006.84;5012947;28;19921;-61
2021/07/28 08:49:37;;;;;;;;;;;;;;;17.99;78.00;99004.81;5012367;28;19947;-61
2021/07/28 08:52:03;;;;;;;;;;;;;;;17.93;79.68;99003.31;5029241;28;19940;-61
2021/07/28 08:54:28;;;;;;;;;;;;;;;18.73;75.94;99014.91;5033436;28;19928;-61
2021/07/28 08:56:54;;;;;;;;;;;;;;;18.66;75.91;99015.28;5017784;28;19949;-61
2021/07/28 08:59:23;;;;;;;;;;;;;;;18.89;75.62;99010.00;5016551;28;20312;-61
2021/07/28 09:01:48;;;;;;;;;;;;;;;19.06;74.69;99007.47;5031805;28;19932;-61
2021/07/28 09:04:13;;;;;;;;;;;;;;;19.14;74.30;99004.03;5036997;28;19921;-61
2021/07/28 09:06:39;;;;;;;;;;;;;;;19.32;73.37;99007.75;5023213;28;19925;-61
2021/07/28 09:09:04;;;;;;;;;;;;;;;19.36;73.33;99008.72;5017365;28;19918;-61
2021/07/28 09:11:29;;;;;;;;;;;;;;;19.55;72.74;99005.84;5029171;28;20283;-61
2021/07/28 09:13:56;;;;;;;;;;;;;;;19.61;72.22;99003.81;5037158;28;19917;-61
2021/07/28 09:16:21;;;;;;;;;;;;;;;19.55;72.66;99003.13;5036639;28;19917;-61
2021/07/28 09:18:50;;;;;;;;;;;;;;;20.66;68.58;99008.03;5035814;28;19924;-61
2021/07/28 09:21:18;;;;;;;;;;;;;;;20.51;69.53;99011.94;5036524;28;20037;-62
2021/07/28 09:23:44;;;;;;;;;;;;;;;19.84;71.09;99004.66;5037101;28;19913;-61
2021/07/28 09:26:30;;;;;;;;;;;;;;;19.84;71.61;99004.66;5036790;28;19928;-62
2021/07/28 09:29:11;;;;;;;;;;;;;;;19.08;73.13;99004.47;5037227;28;20047;-61
2021/07/28 09:31:36;;;;;;;;;;;;;;;19.01;74.31;99004.88;5036670;28;20027;-61
2021/07/28 09:34:21;;;;;;;;;;;;;;;19.51;72.69;99004.84;5037214;28;19921;-61
2021/07/28 09:36:47;;;;;;;;;;;;;;;21.11;67.57;99005.91;5036308;28;19953;-61
2021/07/28 09:39:28;;;;;;;;;;;;;;;22.34;63.75;99006.72;5036950;28;20287;-61
2021/07/28 09:41:54;;;;;;;;;;;;;;;21.71;63.46;99004.38;5036333;28;19922;-61
2021/07/28 09:44:26;;;;;;;;;;;;;;;21.76;63.65;99000.69;5036520;28;19918;-61
2021/07/28 09:47:02;;;;;;;;;;;;;;;22.38;61.78;98999.50;5034857;28;19921;-61
2021/07/28 09:49:27;;;;;;;;;;;;;;;24.35;57.02;99001.50;5035264;28;19924;-61
2021/07/28 09:51:52;;;;;;;;;;;;;;;21.80;63.09;99007.13;5035781;28;19921;-61
2021/07/28 09:54:18;;;;;;;;;;;;;;;21.66;64.08;99001.81;5036422;28;19968;-61
2021/07/28 09:56:44;;;;;;;;;;;;;;;22.36;62.07;99007.19;5034713;28;19921;-61
2021/07/28 09:59:09;;;;;;;;;;;;;;;21.45;62.56;98995.41;5036452;28;19921;-62
2021/07/28 10:01:34;;;;;;;;;;;;;;;21.79;61.86;99004.72;5034629;28;19921;-61
2021/07/28 10:04:00;;;;;;;;;;;;;;;20.20;67.32;99001.06;5036025;28;20342;-61
2021/07/28 10:06:30;;;;;;;;;;;;;;;22.21;62.20;98994.88;5035699;28;19922;-62
2021/07/28 10:08:55;;;;;;;;;;;;;;;22.59;60.34;99000.38;5034433;28;19928;-61
2021/07/28 10:11:24;;;;;;;;;;;;;;;22.77;61.30;98994.84;5034239;28;19921;-61
2021/07/28 10:13:50;;;;;;;;;;;;;;;23.39;58.48;98988.69;5035892;28;19939;-61
2021/07/28 10:16:16;;;;;;;;;;;;;;;22.24;61.47;98987.97;5024019;28;19921;-61
2021/07/28 10:18:41;;;;;;;;;;;;;;;21.57;63.29;98990.13;5016339;28;19918;-61
2021/07/28 10:21:06;;;;;;;;;;;;;;;22.76;60.10;98988.56;5023521;28;20019;-61
2021/07/28 10:23:32;;;;;;;;;;;;;;;21.56;63.42;98987.72;5034483;28;20316;-62
2021/07/28 10:25:57;;;;;;;;;;;;;;;21.91;62.72;98986.56;5035431;28;19991;-61
2021/07/28 10:28:22;;;;;;;;;;;;;;;22.25;60.17;98978.66;5034545;28;19918;-61
2021/07/28 10:31:07;;;;;;;;;;;;;;;22.50;60.94;98985.16;5060814;28;20379;-61
2021/07/28 10:33:33;;;;;;;;;;;;;;;22.18;60.34;98985.38;5015832;28;19925;-61
2021/07/28 10:35:58;;;;;;;;;;;;;;;22.78;59.73;98985.50;5023325;28;20307;-61
2021/07/28 10:38:23;;;;;;;;;;;;;;;22.63;60.32;98991.53;5035771;28;19917;-61
2021/07/28 10:40:50;;;;;;;;;;;;;;;22.07;61.19;98996.97;5035447;28;20390;-61
2021/07/28 10:43:15;;;;;;;;;;;;;;;21.69;61.48;98998.47;5035556;28;19917;-61
2021/07/28 10:45:54;;;;;;;;;;;;;;;21.74;62.04;98992.84;5035112;28;19921;-61
2021/07/28 10:48:38;;;;;;;;;;;;;;;21.44;62.43;98993.81;5035368;28;19940;-61
2021/07/28 10:51:03;;;;;;;;;;;;;;;21.21;64.09;98993.91;5034663;28;19921;-62
2021/07/28 10:53:48;;;;;;;;;;;;;;;21.56;63.00;98995.91;5035400;28;19924;-61
2021/07/28 10:56:14;;;;;;;;;;;;;;;20.97;64.48;98985.41;5033975;28;19928;-61
2021/07/28 10:58:39;;;;;;;;;;;;;;;20.98;64.76;98989.72;5035238;28;19917;-62
2021/07/28 11:01:04;;;;;;;;;;;;;;;21.02;64.03;98983.31;5035033;28;19936;-62
2021/07/28 11:03:30;;;;;;;;;;;;;;;21.08;64.53;98979.31;5033605;28;20344;-61
2021/07/28 11:06:11;;;;;;;;;;;;;;;20.75;63.95;98989.81;5034787;28;19927;-62
2021/07/28 11:08:37;;;;;;;;;;;;;;;21.15;63.69;98992.47;5034949;28;20363;-61
2021/07/28 11:11:02;;;;;;;;;;;;;;;20.78;63.88;98991.09;5033229;28;19936;-61
2021/07/28 11:13:28;;;;;;;;;;;;;;;20.64;64.76;98993.91;5035040;28;19920;-61
2021/07/28 11:15:57;;;;;;;;;;;;;;;20.75;65.42;99002.63;5034691;28;20291;-62
2021/07/28 11:18:35;;;;;;;;;;;;;;;20.93;65.60;98992.59;5034657;28;20359;-61
2021/07/28 11:21:17;;;;;;;;;;;;;;;20.74;67.04;98985.47;5033477;28;19921;-61
2021/07/28 11:23:52;;;;;;;;;;;;;;;21.32;65.65;98989.78;5034620;28;19917;-61
2021/07/28 11:26:19;;;;;;;;;;;;;;;21.06;67.07;98983.47;5034356;28;19925;-62
2021/07/28 11:28:44;;;;;;;;;;;;;;;20.65;66.75;98985.44;5034921;28;19999;-61
2021/07/28 11:31:10;;;;;;;;;;;;;;;20.58;65.81;98985.09;5033537;28;19922;-61
2021/07/28 11:33:35;;;;;;;;;;;;;;;21.58;64.35;98990.94;5034768;28;19987;-61
2021/07/28 11:36:00;;;;;;;;;;;;;;;20.82;64.76;98998.31;5033939;28;19925;-61
2021/07/28 11:38:32;;;;;;;;;;;;;;;21.41;64.00;98995.25;5034313;28;19948;-61
2021/07/28 11:40:58;;;;;;;;;;;;;;;21.72;62.41;98989.66;5034087;28;19933;-61
2021/07/28 11:43:23;;;;;;;;;;;;;;;21.03;64.09;99003.19;5034381;28;19921;-61
2021/07/28 11:45:49;;;;;;;;;;;;;;;21.43;64.05;99001.19;5033993;28;20008;-62
2021/07/28 11:48:33;;;;;;;;;;;;;;;21.58;63.34;98999.09;5034276;28;20390;-61
2021/07/28 11:51:00;;;;;;;;;;;;;;;21.55;63.26;98995.09;5033753;28;20299;-62
2021/07/28 11:53:26;;;;;;;;;;;;;;;21.18;65.37;99002.72;5034637;28;19960;-62
2021/07/28 11:55:52;;;;;;;;;;;;;;;21.93;63.36;99005.34;5034007;28;19921;-61
2021/07/28 11:58:17;;;;;;;;;;;;;;;22.58;62.22;98998.75;5033219;28;19913;-62
2021/07/28 12:00:44;;;;;;;;;;;;;;;23.15;59.09;98994.00;5033953;28;19928;-62
2021/07/28 12:03:25;;;;;;;;;;;;;;;22.90;59.59;98993.00;5032955;28;19981;-62
2021/07/28 12:05:56;;;;;;;;;;;;;;;23.03;59.04;98998.25;5033505;28;19921;-61
2021/07/28 12:08:28;;;;;;;;;;;;;;;23.08;59.25;98983.59;5034010;28;19917;-61
2021/07/28 12:11:05;;;;;;;;;;;;;;;22.57;59.97;98986.25;5032631;28;20568;-61
2021/07/28 12:13:40;;;;;;;;;;;;;;;22.51;57.97;98984.03;5033679;28;19971;-61
2021/07/28 12:16:05;;;;;;;;;;;;;;;22.93;58.35;98982.19;5033206;28;20368;-61
2021/07/28 12:18:40;;;;;;;;;;;;;;;22.11;60.17;98978.81;5033961;28;19917;-61
2021/07/28 12:21:05;;;;;;;;;;;;;;;23.01;58.47;98973.19;5033276;28;20268;-61
2021/07/28 12:23:31;;;;;;;;;;;;;;;23.36;57.51;98983.88;5033734;28;20367;-61
2021/07/28 12:25:57;;;;;;;;;;;;;;;24.03;53.74;98973.03;5033141;28;19944;-61
2021/07/28 12:28:22;;;;;;;;;;;;;;;23.52;53.04;98964.16;5033474;28;19917;-61
2021/07/28 12:30:55;;;;;;;;;;;;;;;23.66;53.12;98983.78;5031747;28;20384;-61
2021/07/28 12:33:22;;;;;;;;;;;;;;;24.02;52.69;98993.31;5032341;28;19917;-61
2021/07/28 12:35:53;;;;;;;;;;;;;;;23.46;53.43;98994.44;5033243;28;19927;-61
2021/07/28 12:38:18;;;;;;;;;;;;;;;23.55;54.27;98990.81;5033581;28;19984;-62
2021/07/28 12:41:02;;;;;;;;;;;;;;;23.34;55.04;98991.63;5032972;28;20453;-61
2021/07/28 12:43:31;;;;;;;;;;;;;;;22.66;56.68;99005.31;5033423;28;19971;-61
2021/07/28 12:45:57;;;;;;;;;;;;;;;22.68;57.16;99013.19;5032926;28;19921;-61
2021/07/28 12:48:22;;;;;;;;;;;;;;;22.78;56.79;99018.28;5033405;28;20382;-60